createdAt,value
2022-10-07T00:01:11.431Z,3.30
2022-10-07T00:03:40.556Z,3.20
2022-10-07T00:06:13.617Z,3.20
2022-10-07T00:08:47.394Z,3.20
2022-10-07T00:11:18.761Z,3.20
2022-10-07T00:13:47.909Z,2.90
2022-10-07T00:18:46.145Z,2.90
2022-10-07T00:21:16.527Z,2.80
2022-10-07T00:23:46.389Z,2.60
2022-10-07T00:26:20.669Z,2.70
2022-10-07T00:28:49.400Z,2.90
2022-10-07T00:31:24.644Z,2.80
2022-10-07T00:33:54.235Z,2.80
2022-10-07T00:36:29.503Z,2.50
2022-10-07T00:39:03.755Z,2.70
2022-10-07T00:41:52.760Z,2.90
2022-10-07T00:44:42.134Z,2.50
2022-10-07T00:47:13.328Z,2.60
2022-10-07T00:49:54.287Z,2.50
2022-10-07T00:52:26.420Z,3.00
2022-10-07T00:54:57.314Z,2.80
2022-10-07T00:57:29.530Z,2.80
2022-10-07T00:59:57.865Z,3.00
2022-10-07T01:02:27.499Z,2.90
2022-10-07T01:04:59.079Z,3.20
2022-10-07T01:07:28.385Z,2.90
2022-10-07T01:12:55.640Z,2.50
2022-10-07T01:15:30.474Z,2.60
2022-10-07T01:18:12.670Z,2.80
2022-10-07T01:20:46.926Z,2.80
2022-10-07T01:23:44.558Z,2.60
2022-10-07T01:26:24.710Z,2.40
2022-10-07T01:28:59.237Z,2.80
2022-10-07T01:31:44.409Z,2.70
2022-10-07T01:34:14.736Z,2.70
2022-10-07T01:36:51.996Z,3.30
2022-10-07T01:39:26.545Z,2.90
2022-10-07T01:41:54.775Z,3.10
2022-10-07T01:44:23.314Z,2.90
2022-10-07T01:46:51.375Z,2.90
2022-10-07T01:49:19.344Z,2.80
2022-10-07T01:52:03.699Z,2.70
2022-10-07T01:54:50.918Z,3.00
2022-10-07T01:57:59.337Z,2.60
2022-10-07T02:03:34.101Z,2.90
2022-10-07T02:06:20.079Z,2.90
2022-10-07T02:08:55.297Z,2.80
2022-10-07T02:11:30.281Z,3.00
2022-10-07T02:14:23.411Z,3.00
2022-10-07T02:16:57.015Z,3.00
2022-10-07T02:19:31.740Z,2.90
2022-10-07T02:22:03.038Z,2.80
2022-10-07T02:24:35.654Z,2.90
2022-10-07T02:27:10.018Z,2.90
2022-10-07T02:29:41.130Z,3.20
2022-10-07T02:32:13.716Z,3.20
2022-10-07T02:34:46.185Z,3.00
2022-10-07T02:37:19.852Z,2.60
2022-10-07T02:39:48.778Z,3.00
2022-10-07T02:42:28.216Z,2.60
2022-10-07T02:45:05.426Z,2.70
2022-10-07T02:47:51.192Z,2.70
2022-10-07T02:50:23.838Z,2.50
2022-10-07T02:52:55.887Z,2.40
2022-10-07T02:55:27.793Z,2.20
2022-10-07T02:58:00.507Z,2.70
2022-10-07T03:00:31.005Z,2.50
2022-10-07T03:03:02.625Z,3.10
2022-10-07T03:05:54.799Z,3.10
2022-10-07T03:08:24.644Z,3.10
2022-10-07T03:10:52.788Z,2.90
2022-10-07T03:13:20.820Z,3.00
2022-10-07T03:15:52.284Z,3.20
2022-10-07T03:18:28.371Z,3.10
2022-10-07T03:21:22.860Z,3.00
2022-10-07T03:23:54.209Z,2.80
2022-10-07T03:26:24.653Z,2.80
2022-10-07T03:28:53.729Z,2.90
2022-10-07T03:31:22.015Z,3.00
2022-10-07T03:33:52.150Z,3.00
2022-10-07T03:36:20.835Z,2.90
2022-10-07T03:38:49.910Z,2.60
2022-10-07T03:41:19.432Z,2.90
2022-10-07T03:43:48.818Z,2.90
2022-10-07T03:46:19.919Z,3.40
2022-10-07T03:48:48.161Z,3.20
2022-10-07T03:51:16.424Z,2.70
2022-10-07T03:53:44.389Z,2.70
2022-10-07T03:56:12.870Z,3.30
2022-10-07T03:58:42.476Z,3.00
2022-10-07T04:01:16.714Z,3.30
2022-10-07T04:03:50.266Z,2.90
2022-10-07T04:06:19.493Z,3.20
2022-10-07T04:11:19.933Z,2.80
2022-10-07T04:13:48.518Z,3.00
2022-10-07T04:16:20.033Z,2.90
2022-10-07T04:18:48.754Z,3.00
2022-10-07T04:21:17.163Z,2.90
2022-10-07T04:23:45.209Z,3.20
2022-10-07T04:26:13.585Z,3.10
2022-10-07T04:28:44.890Z,3.40
2022-10-07T04:31:15.189Z,2.90
2022-10-07T04:33:46.624Z,3.60
2022-10-07T04:36:19.698Z,3.00
2022-10-07T04:38:54.631Z,3.50
2022-10-07T04:41:26.439Z,3.70
2022-10-07T04:43:57.883Z,3.10
2022-10-07T04:46:28.560Z,3.30
2022-10-07T04:49:05.250Z,3.40
2022-10-07T04:51:33.626Z,3.70
2022-10-07T04:54:02.097Z,3.40
2022-10-07T04:56:34.684Z,3.10
2022-10-07T04:59:05.215Z,3.30
2022-10-07T05:01:33.503Z,3.00
2022-10-07T05:04:01.468Z,3.10
2022-10-07T05:06:30.148Z,2.90
2022-10-07T05:08:58.052Z,3.60
2022-10-07T05:11:26.533Z,4.20
2022-10-07T05:14:02.179Z,3.70
2022-10-07T05:16:31.248Z,3.50
2022-10-07T05:18:59.957Z,3.20
2022-10-07T05:21:27.997Z,3.60
2022-10-07T05:23:56.172Z,3.30
2022-10-07T05:26:28.032Z,4.10
2022-10-07T05:28:58.596Z,3.70
2022-10-07T05:31:31.832Z,3.90
2022-10-07T05:34:02.283Z,4.10
2022-10-07T05:36:30.564Z,4.50
2022-10-07T05:39:00.683Z,3.70
2022-10-07T05:41:45.636Z,3.70
2022-10-07T05:44:15.713Z,4.30
2022-10-07T05:46:44.046Z,4.10
2022-10-07T05:49:12.328Z,5.10
2022-10-07T05:51:41.726Z,5.40
2022-10-07T05:54:09.880Z,5.00
2022-10-07T05:56:41.455Z,4.90
2022-10-07T05:59:10.529Z,5.40
2022-10-07T06:01:43.027Z,5.30
2022-10-07T06:04:15.010Z,5.00
2022-10-07T06:06:45.291Z,5.80
2022-10-07T06:09:32.653Z,6.40
2022-10-07T06:12:22.850Z,6.20
2022-10-07T06:14:51.636Z,6.00
2022-10-07T06:17:19.518Z,5.40
2022-10-07T06:19:48.086Z,5.30
2022-10-07T06:22:16.966Z,5.60
2022-10-07T06:24:45.595Z,5.00
2022-10-07T06:27:13.630Z,6.30
2022-10-07T06:29:43.345Z,6.60
2022-10-07T06:32:11.313Z,5.90
2022-10-07T06:34:40.101Z,6.20
2022-10-07T06:37:08.030Z,6.20
2022-10-07T06:39:35.957Z,6.50
2022-10-07T06:42:03.965Z,6.30
2022-10-07T06:45:08.460Z,6.10
2022-10-07T06:47:37.118Z,6.70
2022-10-07T06:50:05.907Z,7.30
2022-10-07T06:52:37.901Z,10.50
2022-10-07T06:55:08.260Z,10.80
2022-10-07T06:57:52.142Z,13.50
2022-10-07T07:00:20.879Z,11.70
2022-10-07T07:02:49.197Z,11.30
2022-10-07T07:05:17.697Z,10.70
2022-10-07T07:07:46.859Z,10.30
2022-10-07T07:10:15.369Z,9.90
2022-10-07T07:12:46.395Z,9.50
2022-10-07T07:15:15.099Z,9.00
2022-10-07T07:17:43.664Z,8.40
2022-10-07T07:20:12.777Z,9.20
2022-10-07T07:25:10.455Z,10.30
2022-10-07T07:30:08.753Z,7.70
2022-10-07T07:32:36.793Z,8.00
2022-10-07T07:35:05.776Z,7.80
2022-10-07T07:42:31.577Z,7.90
2022-10-07T07:45:00.763Z,7.70
2022-10-07T07:47:28.835Z,7.80
2022-10-07T07:49:57.114Z,7.30
2022-10-07T07:52:29.692Z,7.70
2022-10-07T07:54:59.289Z,6.70
2022-10-07T07:57:29.205Z,7.70
2022-10-07T07:59:58.860Z,7.40
2022-10-07T08:02:27.965Z,7.60
2022-10-07T08:04:56.044Z,6.90
2022-10-07T08:07:24.885Z,7.70
2022-10-07T08:09:52.834Z,6.50
2022-10-07T08:12:22.307Z,6.20
2022-10-07T08:14:52.272Z,6.10
2022-10-07T08:17:22.262Z,6.40
2022-10-07T08:19:51.076Z,7.20
2022-10-07T08:22:19.438Z,6.90
2022-10-07T08:24:49.471Z,6.90
2022-10-07T08:27:18.773Z,6.70
2022-10-07T08:29:46.780Z,6.10
2022-10-07T08:34:43.030Z,6.60
2022-10-07T08:37:11.060Z,6.60
2022-10-07T08:39:39.001Z,7.10
2022-10-07T08:42:29.742Z,6.10
2022-10-07T08:44:57.885Z,6.30
2022-10-07T08:47:35.195Z,5.90
2022-10-07T08:52:52.542Z,5.40
2022-10-07T08:55:49.791Z,5.60
2022-10-07T08:59:00.873Z,5.50
2022-10-07T09:01:29.509Z,5.50
2022-10-07T09:04:12.777Z,5.60
2022-10-07T09:07:04.049Z,5.30
2022-10-07T09:09:41.082Z,5.60
2022-10-07T09:12:17.019Z,5.10
2022-10-07T09:14:48.372Z,5.90
2022-10-07T09:17:41.369Z,5.60
2022-10-07T09:20:18.024Z,6.00
2022-10-07T09:22:57.471Z,4.90
2022-10-07T09:25:28.400Z,6.50
2022-10-07T09:27:57.402Z,5.50
2022-10-07T09:30:28.231Z,5.50
2022-10-07T09:32:58.298Z,5.90
2022-10-07T09:35:29.908Z,5.90
2022-10-07T09:38:01.146Z,5.30
2022-10-07T09:40:37.563Z,4.20
2022-10-07T09:43:14.150Z,4.40
2022-10-07T09:45:47.095Z,5.10
2022-10-07T09:48:22.337Z,5.10
2022-10-07T09:50:50.313Z,4.50
2022-10-07T09:53:26.052Z,4.90
2022-10-07T09:55:55.475Z,4.60
2022-10-07T09:58:28.551Z,5.50
2022-10-07T10:01:03.038Z,4.80
2022-10-07T10:03:38.097Z,4.60
2022-10-07T10:06:08.894Z,4.50
2022-10-07T10:08:40.103Z,4.90
2022-10-07T10:11:28.654Z,4.50
2022-10-07T10:13:56.722Z,3.90
2022-10-07T10:16:24.793Z,3.80
2022-10-07T10:19:02.803Z,4.00
2022-10-07T10:21:40.185Z,3.90
2022-10-07T10:24:14.604Z,4.10
2022-10-07T10:27:03.788Z,4.00
2022-10-07T10:29:43.494Z,3.70
2022-10-07T10:32:32.433Z,3.70
2022-10-07T10:35:27.739Z,3.30
2022-10-07T10:38:38.354Z,3.20
2022-10-07T10:41:30.796Z,3.50
2022-10-07T10:44:48.230Z,3.80
2022-10-07T10:47:44.051Z,3.10
2022-10-07T10:50:31.062Z,3.40
2022-10-07T10:53:09.122Z,3.50
2022-10-07T10:55:43.593Z,3.40
2022-10-07T10:58:30.303Z,2.80
2022-10-07T11:01:18.432Z,2.90
2022-10-07T11:04:11.282Z,3.10
2022-10-07T11:06:44.696Z,3.10
2022-10-07T11:09:38.622Z,2.50
2022-10-07T11:12:26.335Z,2.80
2022-10-07T11:15:02.588Z,2.50
2022-10-07T11:17:36.252Z,2.90
2022-10-07T11:20:27.897Z,2.60
2022-10-07T11:23:00.676Z,2.50
2022-10-07T11:25:43.169Z,2.80
2022-10-07T11:28:21.785Z,2.80
2022-10-07T11:31:11.506Z,2.60
2022-10-07T11:33:47.260Z,2.50
2022-10-07T11:36:21.661Z,2.50
2022-10-07T11:38:52.889Z,2.60
2022-10-07T11:41:26.808Z,2.30
2022-10-07T11:43:58.855Z,2.70
2022-10-07T11:46:40.095Z,2.60
2022-10-07T11:49:11.203Z,2.50
2022-10-07T11:52:05.225Z,2.20
2022-10-07T11:54:53.043Z,2.10
2022-10-07T11:57:24.574Z,2.40
2022-10-07T12:00:02.306Z,2.10
2022-10-07T12:02:46.538Z,2.50
2022-10-07T12:05:47.871Z,2.50
2022-10-07T12:08:32.289Z,2.00
2022-10-07T12:11:12.587Z,2.40
2022-10-07T12:13:43.939Z,2.20
2022-10-07T12:16:24.240Z,2.00
2022-10-07T12:19:07.559Z,2.40
2022-10-07T12:22:00.381Z,2.20
2022-10-07T12:24:33.465Z,2.80
2022-10-07T12:27:23.553Z,2.60
2022-10-07T12:30:02.772Z,2.80
2022-10-07T12:32:42.906Z,3.00
2022-10-07T12:35:37.126Z,2.70
2022-10-07T12:38:17.862Z,2.40
2022-10-07T12:40:57.951Z,2.30
2022-10-07T12:43:29.800Z,2.40
2022-10-07T12:45:59.696Z,2.50
2022-10-07T12:48:40.299Z,2.70
2022-10-07T12:51:19.422Z,2.30
2022-10-07T12:53:50.476Z,2.70
2022-10-07T12:56:23.023Z,3.10
2022-10-07T12:59:18.093Z,2.70
2022-10-07T13:02:18.757Z,2.40
2022-10-07T13:04:58.949Z,2.20
2022-10-07T13:07:50.151Z,2.20
2022-10-07T13:10:27.132Z,2.40
2022-10-07T13:13:06.900Z,2.00
2022-10-07T13:16:10.234Z,2.10
2022-10-07T13:18:48.078Z,1.90
2022-10-07T13:21:24.547Z,2.10
2022-10-07T13:23:54.372Z,1.90
2022-10-07T13:26:24.069Z,2.10
2022-10-07T13:29:01.270Z,2.00
2022-10-07T13:31:31.636Z,1.80
2022-10-07T13:34:14.194Z,1.90
2022-10-07T13:36:46.258Z,2.20
2022-10-07T13:39:21.855Z,2.00
2022-10-07T13:41:55.897Z,2.10
2022-10-07T13:44:28.514Z,2.20
2022-10-07T13:47:01.540Z,2.40
2022-10-07T13:49:33.449Z,2.70
2022-10-07T13:52:05.615Z,2.70
2022-10-07T13:54:34.506Z,2.50
2022-10-07T13:57:02.988Z,2.20
2022-10-07T13:59:36.706Z,1.80
2022-10-07T14:02:08.134Z,2.30
2022-10-07T14:04:49.632Z,2.30
2022-10-07T14:07:21.227Z,2.30
2022-10-07T14:09:56.531Z,2.00
2022-10-07T14:12:32.906Z,2.10
2022-10-07T14:15:23.240Z,2.30
2022-10-07T14:17:55.459Z,2.50
2022-10-07T14:20:31.536Z,2.50
2022-10-07T14:23:06.044Z,2.30
2022-10-07T14:25:55.316Z,2.10
2022-10-07T14:28:23.496Z,2.20
2022-10-07T14:31:39.192Z,2.30
2022-10-07T14:34:37.468Z,2.20
2022-10-07T14:37:28.325Z,2.40
2022-10-07T14:39:59.024Z,2.90
2022-10-07T14:42:36.320Z,2.50
2022-10-07T14:45:09.619Z,2.60
2022-10-07T14:47:41.654Z,2.30
2022-10-07T14:50:10.592Z,2.50
2022-10-07T14:52:46.184Z,2.30
2022-10-07T14:55:20.717Z,2.80
2022-10-07T14:57:48.995Z,2.60
2022-10-07T15:00:20.327Z,2.40
2022-10-07T15:02:53.349Z,2.60
2022-10-07T15:05:23.075Z,2.40
2022-10-07T15:07:51.342Z,2.50
2022-10-07T15:10:22.313Z,2.60
2022-10-07T15:12:50.448Z,2.80
2022-10-07T15:15:19.448Z,7.60
2022-10-07T15:17:48.226Z,15.40
2022-10-07T15:20:17.630Z,20.70
2022-10-07T15:22:46.137Z,13.10
2022-10-07T15:27:44.612Z,13.50
2022-10-07T15:30:13.314Z,7.90
2022-10-07T15:32:41.700Z,3.30
2022-10-07T15:35:10.058Z,3.20
2022-10-07T15:37:38.128Z,2.60
2022-10-07T15:40:07.782Z,2.90
2022-10-07T15:42:35.889Z,2.70
2022-10-07T15:45:04.032Z,3.30
2022-10-07T15:47:34.616Z,3.00
2022-10-07T15:50:02.602Z,3.20
2022-10-07T15:52:30.682Z,2.70
2022-10-07T15:54:59.997Z,3.30
2022-10-07T15:57:29.564Z,3.20
2022-10-07T15:59:57.610Z,3.00
2022-10-07T16:02:25.561Z,3.10
2022-10-07T16:04:53.474Z,3.90
2022-10-07T16:07:21.788Z,3.60
2022-10-07T16:09:49.751Z,3.80
2022-10-07T16:12:18.357Z,5.00
2022-10-07T16:14:47.532Z,3.90
2022-10-07T16:19:44.478Z,4.20
2022-10-07T16:22:12.465Z,4.20
2022-10-07T16:24:42.375Z,4.30
2022-10-07T16:27:10.451Z,4.30
2022-10-07T16:29:56.827Z,3.40
2022-10-07T16:32:24.940Z,3.80
2022-10-07T16:34:52.892Z,4.00
2022-10-07T16:37:20.776Z,3.70
2022-10-07T16:39:48.700Z,3.90
2022-10-07T16:42:16.650Z,4.60
2022-10-07T16:44:49.886Z,3.70
2022-10-07T16:47:18.607Z,3.20
2022-10-07T16:49:46.552Z,3.60
2022-10-07T16:52:14.472Z,3.10
2022-10-07T16:54:43.306Z,3.50
2022-10-07T16:57:11.679Z,3.50
2022-10-07T16:59:39.840Z,3.10
2022-10-07T17:02:08.606Z,3.20
2022-10-07T17:04:36.428Z,3.60
2022-10-07T17:07:06.016Z,3.60
2022-10-07T17:09:34.086Z,3.30
2022-10-07T17:12:02.263Z,3.60
2022-10-07T17:14:32.075Z,3.90
2022-10-07T17:17:00.979Z,3.80
2022-10-07T17:19:29.207Z,3.70
2022-10-07T17:21:59.592Z,3.50
2022-10-07T17:24:27.554Z,4.30
2022-10-07T17:26:56.339Z,3.70
2022-10-07T17:29:29.726Z,3.90
2022-10-07T17:31:57.585Z,3.20
2022-10-07T17:34:25.662Z,3.20
2022-10-07T17:36:54.367Z,3.70
2022-10-07T17:39:22.498Z,3.30
2022-10-07T17:41:50.364Z,3.50
2022-10-07T17:44:18.642Z,3.50
2022-10-07T17:46:49.203Z,3.20
2022-10-07T17:49:17.370Z,3.10
2022-10-07T17:51:45.543Z,3.60
2022-10-07T17:54:15.157Z,3.40
2022-10-07T17:56:44.669Z,3.70
2022-10-07T17:59:12.935Z,3.50
2022-10-07T18:01:41.723Z,3.10
2022-10-07T18:04:13.565Z,3.30
2022-10-07T18:06:46.996Z,3.00
2022-10-07T18:09:18.647Z,3.10
2022-10-07T18:12:05.223Z,3.10
2022-10-07T18:14:53.979Z,3.00
2022-10-07T18:17:24.702Z,2.60
2022-10-07T18:19:53.267Z,3.20
2022-10-07T18:22:21.902Z,3.10
2022-10-07T18:24:50.198Z,3.30
2022-10-07T18:27:18.335Z,3.10
2022-10-07T18:29:46.493Z,3.20
2022-10-07T18:32:14.561Z,2.90
2022-10-07T18:34:42.734Z,2.90
2022-10-07T18:37:10.974Z,3.30
2022-10-07T18:39:39.303Z,3.00
2022-10-07T18:42:07.550Z,3.20
2022-10-07T18:44:35.824Z,2.90
2022-10-07T18:47:03.911Z,2.80
2022-10-07T18:49:31.877Z,2.90
2022-10-07T18:52:01.797Z,3.60
2022-10-07T18:54:29.656Z,2.90
2022-10-07T18:56:57.732Z,2.80
2022-10-07T18:59:25.809Z,2.70
2022-10-07T19:01:54.125Z,2.70
2022-10-07T19:04:22.255Z,3.30
2022-10-07T19:06:50.531Z,3.30
2022-10-07T19:09:20.765Z,3.20
2022-10-07T19:11:49.477Z,3.00
2022-10-07T19:14:17.735Z,2.90
2022-10-07T19:16:49.397Z,3.30
2022-10-07T19:19:22.904Z,3.70
2022-10-07T19:21:55.302Z,3.40
2022-10-07T19:24:43.831Z,3.20
2022-10-07T19:29:40.317Z,3.20
2022-10-07T19:32:09.111Z,3.10
2022-10-07T19:34:37.345Z,4.20
2022-10-07T19:37:06.709Z,3.90
2022-10-07T19:39:34.824Z,4.30
2022-10-07T19:42:04.087Z,3.80
2022-10-07T19:44:33.676Z,3.90
2022-10-07T19:47:01.767Z,3.90
2022-10-07T19:49:29.840Z,3.60
2022-10-07T19:51:57.752Z,3.30
2022-10-07T19:54:25.777Z,4.00
2022-10-07T19:56:53.864Z,3.30
2022-10-07T19:59:22.424Z,4.40
2022-10-07T20:01:52.115Z,4.60
2022-10-07T20:04:21.089Z,4.20
2022-10-07T20:06:49.235Z,4.10
2022-10-07T20:09:19.381Z,4.10
2022-10-07T20:11:47.939Z,4.10
2022-10-07T20:14:16.268Z,4.30
2022-10-07T20:16:44.854Z,4.40
2022-10-07T20:19:15.869Z,4.30
2022-10-07T20:21:45.433Z,4.00
2022-10-07T20:26:44.454Z,4.20
2022-10-07T20:29:15.410Z,3.60
2022-10-07T20:31:44.856Z,4.60
2022-10-07T20:34:15.720Z,4.20
2022-10-07T20:36:44.310Z,5.60
2022-10-07T20:39:35.656Z,5.30
2022-10-07T20:42:28.899Z,5.20
2022-10-07T20:45:00.187Z,4.40
2022-10-07T20:47:33.766Z,4.00
2022-10-07T20:50:02.962Z,4.10
2022-10-07T20:52:34.802Z,3.60
2022-10-07T20:55:03.183Z,4.20
2022-10-07T20:57:38.126Z,4.90
2022-10-07T21:00:10.370Z,4.30
2022-10-07T21:02:38.498Z,4.60
2022-10-07T21:05:08.166Z,4.70
2022-10-07T21:07:36.037Z,4.50
2022-10-07T21:10:04.630Z,4.50
2022-10-07T21:12:32.693Z,4.80
2022-10-07T21:15:01.284Z,4.50
2022-10-07T21:17:29.353Z,5.10
2022-10-07T21:19:57.492Z,3.90
2022-10-07T21:22:25.679Z,4.30
2022-10-07T21:24:53.871Z,5.10
2022-10-07T21:27:21.948Z,5.40
2022-10-07T21:29:50.410Z,8.10
2022-10-07T21:32:18.818Z,6.30
2022-10-07T21:34:46.775Z,5.80
2022-10-07T21:37:14.791Z,5.40
2022-10-07T21:39:43.223Z,6.00
2022-10-07T21:42:11.398Z,5.10
2022-10-07T21:44:39.286Z,6.20
2022-10-07T21:47:07.456Z,4.50
2022-10-07T21:49:35.361Z,5.00
2022-10-07T21:52:03.295Z,4.30
2022-10-07T21:54:31.266Z,4.70
2022-10-07T21:56:59.215Z,4.30
2022-10-07T21:59:27.294Z,4.60
2022-10-07T22:01:55.563Z,4.10
2022-10-07T22:04:24.521Z,4.00
2022-10-07T22:07:10.955Z,4.10
2022-10-07T22:09:38.929Z,4.40
2022-10-07T22:12:07.096Z,4.70
2022-10-07T22:14:35.260Z,4.40
2022-10-07T22:17:03.845Z,4.70
2022-10-07T22:19:31.829Z,4.10
2022-10-07T22:22:00.111Z,5.00
2022-10-07T22:24:28.278Z,5.00
2022-10-07T22:26:56.660Z,4.80
2022-10-07T22:29:25.277Z,5.20
2022-10-07T22:31:54.032Z,4.70
2022-10-07T22:34:42.923Z,4.00
2022-10-07T22:37:10.860Z,4.80
2022-10-07T22:39:38.934Z,4.40
2022-10-07T22:42:07.007Z,4.70
2022-10-07T22:44:35.077Z,4.60
2022-10-07T22:47:03.153Z,4.90
2022-10-07T22:49:31.221Z,5.10
2022-10-07T22:52:00.313Z,4.20
2022-10-07T22:56:56.664Z,4.10
2022-10-07T22:59:24.735Z,3.90
2022-10-07T23:01:53.219Z,3.90
2022-10-07T23:04:21.774Z,4.40
2022-10-07T23:06:50.087Z,4.00
2022-10-07T23:09:18.363Z,4.10
2022-10-07T23:11:46.764Z,4.00
2022-10-07T23:14:15.013Z,4.20
2022-10-07T23:16:44.839Z,4.00
2022-10-07T23:19:13.204Z,4.10
2022-10-07T23:21:41.218Z,4.30
2022-10-07T23:24:10.480Z,4.70
2022-10-07T23:26:38.875Z,5.40
2022-10-07T23:29:07.815Z,4.80
2022-10-07T23:31:36.157Z,5.10
2022-10-07T23:34:06.553Z,5.60
2022-10-07T23:36:34.952Z,5.20
2022-10-07T23:39:03.616Z,5.70
2022-10-07T23:41:32.509Z,4.90
2022-10-07T23:46:35.792Z,5.80
2022-10-07T23:49:04.938Z,6.80
2022-10-07T23:51:34.013Z,5.30
2022-10-07T23:54:03.925Z,5.80
2022-10-07T23:56:33.205Z,6.90
2022-10-07T23:59:02.161Z,6.10
